SARP/PSS METAR and TAF weather

Enter ICAO airport designator
Station Type Date Time Source
SARP METAR 2021/09/27 06:00 UTC NOAA

SARP 270600Z 11004KT CAVOK 19/14 Q1013


Station Type Date Time Source
SARP Decoded METAR 2021/09/27 06:00 UTC NOAA

Posadas Aero., Argentina (SARP) 27-22S 055-58W 133M
Sep 27, 2021 - 02:00 AM EDT / 2021.09.27 0600 UTC
Wind: from the ESE (110 degrees) at 5 MPH (4 KT):0
Visibility: greater than 7 mile(s):0
Temperature: 66 F (19 C)
Dew Point: 57 F (14 C)
Relative Humidity: 72%
Pressure (altimeter): 29.91 in. Hg (1013 hPa)
ob: SARP 270600Z 11004KT CAVOK 19/14 Q1013
cycle: 6

Station Type Date Time Source
SARP TAF 2021/09/27 06:21 UTC NOAA

TAF SARP 270500Z 2706/2806 14005KT CAVOK TX30/2718Z TN17/2710Z

Example: see airport list